< < Back
Terminal Aerodrome Forecast


Current Version              Previous Versions:   1  2  3  4  5  6  7  8  9  

Terminal Aerodrome Forecast

731
FTUS42 KTAE 211700
TAFABY
TAF
KABY 211720Z 2118/2218 32006KT P6SM SKC
     FM220000 00000KT P6SM SKC=

Latest METAR

814
SAUS70 KWBC 222200 RRD
MTRABY
METAR KABY 222153Z 36005KT 10SM CLR 22/06 A3005 RMK AO2 SLP175 T02170056
$


USA.gov is the U.S. government's official web portal to all federal, state and local government web resources and services.